Time;durP1;ratioP1;P1;durP2;ratioP2;P2;SDS_P1;SDS_P2;PMS_P1;PMS_P2;Temp;Humidity;BMP_temperature;BMP_pressure;BME280_temperature;BME280_humidity;BME280_pressure;Samples;Min_cycle;Max_cycle;Signal;HPM_P1;HPM_P2
2022/06/25 00:01:56;;;;;;;;;;;22.60;67.10;;;;;;5027842;28;82909;-42
2022/06/25 00:07:06;;;;;;;;;;;22.60;67.10;;;;;;5028587;28;81873;-41
2022/06/25 00:09:31;;;;;;;;;;;22.60;67.20;;;;;;5028535;28;82529;-42
2022/06/25 00:14:41;;;;;;;;;;;22.50;67.10;;;;;;5028384;28;81917;-43
2022/06/25 00:17:06;;;;;;;;;;;22.50;67.20;;;;;;5031077;28;82483;-42
2022/06/25 00:19:32;;;;;;;;;;;22.50;67.10;;;;;;5028764;28;81287;-43
2022/06/25 00:21:58;;;;;;;;;;;22.50;67.10;;;;;;5027554;28;81887;-42
2022/06/25 00:24:23;;;;;;;;;;;22.50;67.10;;;;;;5028074;28;83244;-42
2022/06/25 00:26:49;;;;;;;;;;;22.50;67.20;;;;;;5027542;28;83034;-42
2022/06/25 00:29:14;;;;;;;;;;;22.50;67.30;;;;;;5028027;28;83371;-43
2022/06/25 00:31:40;;;;;;;;;;;22.50;67.10;;;;;;5027972;28;82971;-42
2022/06/25 00:34:06;;;;;;;;;;;22.50;67.10;;;;;;5028206;28;81911;-42
2022/06/25 00:36:31;;;;;;;;;;;22.40;67.20;;;;;;5028091;28;82442;-42
2022/06/25 00:38:57;;;;;;;;;;;22.40;67.20;;;;;;5030458;28;83266;-42
2022/06/25 00:41:23;;;;;;;;;;;22.40;67.30;;;;;;5027984;28;82171;-41
2022/06/25 00:43:48;;;;;;;;;;;22.30;67.30;;;;;;5028023;28;83639;-43
2022/06/25 00:46:14;;;;;;;;;;;22.40;67.40;;;;;;5027902;28;82081;-43
2022/06/25 00:48:40;;;;;;;;;;;22.30;67.30;;;;;;5027903;28;82475;-42
2022/06/25 00:51:09;;;;;;;;;;;22.30;67.30;;;;;;5027106;28;83999;-42
2022/06/25 00:53:35;;;;;;;;;;;22.30;67.20;;;;;;5027502;28;82179;-42
2022/06/25 00:56:04;;;;;;;;;;;22.30;67.20;;;;;;5027437;28;81966;-42
2022/06/25 00:58:30;;;;;;;;;;;22.30;67.20;;;;;;5027450;28;82008;-41
2022/06/25 01:00:57;;;;;;;;;;;22.30;67.10;;;;;;5030293;28;82050;-42
2022/06/25 01:03:22;;;;;;;;;;;22.30;67.20;;;;;;5025496;28;84164;-42
2022/06/25 01:05:48;;;;;;;;;;;22.30;67.30;;;;;;5027288;28;81984;-42
2022/06/25 01:08:13;;;;;;;;;;;22.30;67.30;;;;;;5028094;28;81618;-42
2022/06/25 01:10:39;;;;;;;;;;;22.20;67.30;;;;;;5027412;28;82765;-42
2022/06/25 01:13:04;;;;;;;;;;;22.20;67.30;;;;;;5027390;28;82060;-41
2022/06/25 01:15:32;;;;;;;;;;;22.20;67.30;;;;;;5026768;28;82977;-43
2022/06/25 01:17:57;;;;;;;;;;;22.10;67.30;;;;;;5027154;28;82116;-42
2022/06/25 01:20:23;;;;;;;;;;;22.20;67.30;;;;;;5027365;28;82097;-42
2022/06/25 01:22:49;;;;;;;;;;;22.10;67.40;;;;;;5029770;28;83830;-41
2022/06/25 01:25:16;;;;;;;;;;;22.10;67.40;;;;;;5027305;28;82159;-42
2022/06/25 01:27:41;;;;;;;;;;;22.10;67.30;;;;;;5027175;28;82416;-42
2022/06/25 01:30:09;;;;;;;;;;;22.10;67.40;;;;;;5027183;28;82164;-43
2022/06/25 01:32:35;;;;;;;;;;;22.10;67.40;;;;;;5026262;28;81366;-42
2022/06/25 01:35:00;;;;;;;;;;;22.10;67.40;;;;;;5027017;28;82031;-41
2022/06/25 01:37:26;;;;;;;;;;;22.00;67.40;;;;;;5026867;28;82957;-42
2022/06/25 01:39:55;;;;;;;;;;;22.10;67.40;;;;;;5026306;28;82918;-42
2022/06/25 01:45:06;;;;;;;;;;;22.00;67.40;;;;;;5029552;28;82309;-42
2022/06/25 01:47:31;;;;;;;;;;;22.00;67.50;;;;;;5026669;28;84032;-42
2022/06/25 01:49:57;;;;;;;;;;;22.00;67.50;;;;;;5026898;28;83300;-41
2022/06/25 01:52:22;;;;;;;;;;;22.00;67.50;;;;;;5026895;28;82078;-42
2022/06/25 01:54:48;;;;;;;;;;;22.00;67.50;;;;;;5026393;28;82384;-42
2022/06/25 01:57:13;;;;;;;;;;;21.90;67.50;;;;;;5027152;28;82244;-42
2022/06/25 01:59:39;;;;;;;;;;;22.00;67.50;;;;;;5026605;28;82153;-41
2022/06/25 02:02:04;;;;;;;;;;;21.90;67.40;;;;;;5026687;28;82490;-41
2022/06/25 02:04:30;;;;;;;;;;;21.90;67.40;;;;;;5025462;28;84015;-43
2022/06/25 02:06:55;;;;;;;;;;;21.90;67.50;;;;;;5029438;28;81868;-43
2022/06/25 02:09:21;;;;;;;;;;;21.90;67.60;;;;;;5026089;28;83156;-43
2022/06/25 02:11:46;;;;;;;;;;;21.90;67.60;;;;;;5026609;28;82172;-42
2022/06/25 02:14:12;;;;;;;;;;;21.90;67.60;;;;;;5026331;28;82355;-42
2022/06/25 02:16:37;;;;;;;;;;;21.80;67.50;;;;;;5026154;28;83123;-41
2022/06/25 02:19:03;;;;;;;;;;;21.80;67.50;;;;;;5026423;28;82188;-42
2022/06/25 02:21:30;;;;;;;;;;;21.80;67.60;;;;;;5026766;28;82441;-41
2022/06/25 02:23:55;;;;;;;;;;;21.80;67.60;;;;;;5025836;28;84515;-42
2022/06/25 02:26:21;;;;;;;;;;;21.80;67.70;;;;;;5029038;28;82087;-42
2022/06/25 02:28:47;;;;;;;;;;;21.70;67.70;;;;;;5025554;28;83738;-42
2022/06/25 02:31:12;;;;;;;;;;;21.80;67.60;;;;;;5026098;28;82165;-41
2022/06/25 02:33:38;;;;;;;;;;;21.80;67.60;;;;;;5025857;28;83831;-41
2022/06/25 02:36:03;;;;;;;;;;;21.80;67.60;;;;;;5025921;28;83073;-42
2022/06/25 02:38:29;;;;;;;;;;;21.70;67.60;;;;;;5025968;28;82057;-41
2022/06/25 02:40:55;;;;;;;;;;;21.70;67.60;;;;;;5026214;28;82218;-42
2022/06/25 02:43:20;;;;;;;;;;;21.70;67.60;;;;;;5025479;28;84552;-42
2022/06/25 02:45:46;;;;;;;;;;;21.70;67.70;;;;;;5024912;28;81222;-42
2022/06/25 02:48:11;;;;;;;;;;;21.70;67.60;;;;;;5028531;28;81959;-42
2022/06/25 02:50:37;;;;;;;;;;;21.70;67.80;;;;;;5025912;28;82096;-41
2022/06/25 02:53:02;;;;;;;;;;;21.70;67.70;;;;;;5025248;28;82989;-42
2022/06/25 03:00:56;;;;;;;;;;;21.60;67.80;;;;;;5025710;28;81994;-41
2022/06/25 03:03:21;;;;;;;;;;;21.60;67.80;;;;;;5025241;28;83355;-44
2022/06/25 03:05:48;;;;;;;;;;;21.60;67.70;;;;;;5025361;28;82067;-42
2022/06/25 03:08:13;;;;;;;;;;;21.60;67.80;;;;;;5025743;28;82778;-42
2022/06/25 03:10:39;;;;;;;;;;;21.60;67.70;;;;;;5028609;28;82343;-42
2022/06/25 03:13:04;;;;;;;;;;;21.60;67.80;;;;;;5025615;28;82088;-42
2022/06/25 03:15:30;;;;;;;;;;;21.60;67.70;;;;;;5025431;28;82892;-42
2022/06/25 03:17:55;;;;;;;;;;;21.60;67.70;;;;;;5024785;28;83073;-42
2022/06/25 03:20:21;;;;;;;;;;;21.60;67.80;;;;;;5025647;28;83589;-41
2022/06/25 03:22:46;;;;;;;;;;;21.50;67.90;;;;;;5025407;28;82763;-42
2022/06/25 03:25:12;;;;;;;;;;;21.50;67.80;;;;;;5025162;28;81971;-41
2022/06/25 03:27:37;;;;;;;;;;;21.50;67.80;;;;;;5025483;28;82446;-42
2022/06/25 03:30:04;;;;;;;;;;;21.50;67.90;;;;;;5025343;28;83296;-42
2022/06/25 03:32:29;;;;;;;;;;;21.50;67.80;;;;;;5028059;28;82109;-41
2022/06/25 03:34:55;;;;;;;;;;;21.40;67.90;;;;;;5025700;28;81588;-43
2022/06/25 03:37:20;;;;;;;;;;;21.40;67.90;;;;;;5025242;28;82201;-42
2022/06/25 03:39:46;;;;;;;;;;;21.50;67.90;;;;;;5025388;28;82599;-41
2022/06/25 03:42:11;;;;;;;;;;;21.40;67.90;;;;;;5024586;28;83778;-42
2022/06/25 03:44:37;;;;;;;;;;;21.40;68.00;;;;;;5025249;28;81980;-42
2022/06/25 03:47:04;;;;;;;;;;;21.40;68.00;;;;;;5025353;28;82370;-42
2022/06/25 03:49:29;;;;;;;;;;;21.40;68.00;;;;;;5024902;28;84603;-42
2022/06/25 03:51:55;;;;;;;;;;;21.40;68.10;;;;;;5024792;28;82011;-45
2022/06/25 03:54:20;;;;;;;;;;;21.40;68.10;;;;;;5027745;28;82259;-42
2022/06/25 03:56:46;;;;;;;;;;;21.40;68.10;;;;;;5026685;28;82029;-42
2022/06/25 03:59:12;;;;;;;;;;;21.40;68.10;;;;;;5029102;28;82391;-43
2022/06/25 04:01:37;;;;;;;;;;;21.40;68.10;;;;;;5028266;28;82247;-43
2022/06/25 04:04:03;;;;;;;;;;;21.40;68.10;;;;;;5027990;28;81995;-42
2022/06/25 04:06:28;;;;;;;;;;;21.40;68.00;;;;;;5027737;28;82883;-42
2022/06/25 04:08:54;;;;;;;;;;;21.30;68.00;;;;;;5028312;28;82830;-41
2022/06/25 04:11:19;;;;;;;;;;;21.40;68.00;;;;;;5028573;28;82064;-41
2022/06/25 04:13:45;;;;;;;;;;;21.30;68.10;;;;;;5030665;28;82377;-42
2022/06/25 04:16:10;;;;;;;;;;;21.30;68.10;;;;;;5028248;28;82071;-42
2022/06/25 04:18:36;;;;;;;;;;;21.30;68.00;;;;;;5028175;28;82036;-41
2022/06/25 04:21:02;;;;;;;;;;;21.30;68.10;;;;;;5027799;28;82959;-41
2022/06/25 04:23:27;;;;;;;;;;;21.30;68.10;;;;;;5028639;28;81344;-42
2022/06/25 04:25:53;;;;;;;;;;;21.30;68.00;;;;;;5028340;28;81969;-41
2022/06/25 04:31:02;;;;;;;;;;;21.30;68.10;;;;;;5027468;28;82932;-43
2022/06/25 04:33:28;;;;;;;;;;;21.30;68.10;;;;;;5027836;28;83502;-43
2022/06/25 04:35:53;;;;;;;;;;;21.20;68.10;;;;;;5030681;28;82416;-41
2022/06/25 04:38:19;;;;;;;;;;;21.30;68.10;;;;;;5028039;28;82566;-42
2022/06/25 04:40:44;;;;;;;;;;;21.30;68.10;;;;;;5027681;28;82981;-42
2022/06/25 04:43:10;;;;;;;;;;;21.30;68.20;;;;;;5028093;28;82077;-41
2022/06/25 04:45:35;;;;;;;;;;;21.30;68.20;;;;;;5027830;28;82521;-42
2022/06/25 04:48:02;;;;;;;;;;;21.20;68.20;;;;;;5027964;28;82315;-42
2022/06/25 04:50:27;;;;;;;;;;;21.20;68.30;;;;;;5027556;28;82052;-43
2022/06/25 04:52:53;;;;;;;;;;;21.20;68.40;;;;;;5028002;28;82316;-41
2022/06/25 04:55:19;;;;;;;;;;;21.20;68.40;;;;;;5026764;28;84177;-42
2022/06/25 04:57:45;;;;;;;;;;;21.20;68.30;;;;;;5029972;28;81966;-41
2022/06/25 05:00:11;;;;;;;;;;;21.20;68.30;;;;;;5027738;28;81990;-42
2022/06/25 05:02:37;;;;;;;;;;;21.20;68.20;;;;;;5027140;28;82052;-42
2022/06/25 05:05:03;;;;;;;;;;;21.20;68.10;;;;;;5027559;28;81898;-42
2022/06/25 05:07:28;;;;;;;;;;;21.20;68.20;;;;;;5027083;28;84617;-42
2022/06/25 05:09:54;;;;;;;;;;;21.20;68.20;;;;;;5027706;28;82192;-42
2022/06/25 05:15:04;;;;;;;;;;;21.20;68.10;;;;;;5027072;28;82260;-41
2022/06/25 05:17:29;;;;;;;;;;;21.20;68.10;;;;;;5027292;28;82201;-42
2022/06/25 05:19:55;;;;;;;;;;;21.20;68.20;;;;;;5029180;28;83725;-42
2022/06/25 05:22:21;;;;;;;;;;;21.10;68.20;;;;;;5027022;28;82845;-42
2022/06/25 05:24:47;;;;;;;;;;;21.20;68.40;;;;;;5027401;28;82352;-41
2022/06/25 05:27:12;;;;;;;;;;;21.20;68.30;;;;;;5027071;28;83193;-42
2022/06/25 05:29:38;;;;;;;;;;;21.20;68.30;;;;;;5027362;28;82125;-41
2022/06/25 05:32:04;;;;;;;;;;;21.20;68.30;;;;;;5027036;28;81944;-42
2022/06/25 05:34:29;;;;;;;;;;;21.20;68.30;;;;;;5026785;28;84736;-42
2022/06/25 05:36:55;;;;;;;;;;;21.20;68.30;;;;;;5027596;28;81208;-41
2022/06/25 05:39:20;;;;;;;;;;;21.20;68.10;;;;;;5026954;28;82005;-42
2022/06/25 05:41:46;;;;;;;;;;;21.20;68.10;;;;;;5029684;28;83023;-42
2022/06/25 05:44:11;;;;;;;;;;;21.30;68.20;;;;;;5026480;28;82961;-42
2022/06/25 05:46:37;;;;;;;;;;;21.30;68.10;;;;;;5025196;28;86390;-42
2022/06/25 05:49:03;;;;;;;;;;;21.30;68.10;;;;;;5026775;28;82201;-42
2022/06/25 05:51:28;;;;;;;;;;;21.30;68.10;;;;;;5026917;28;82426;-42
2022/06/25 05:53:54;;;;;;;;;;;21.30;68.00;;;;;;5026611;28;83115;-42
2022/06/25 05:56:19;;;;;;;;;;;21.30;68.00;;;;;;5026300;28;81960;-42
2022/06/25 05:58:45;;;;;;;;;;;21.30;68.10;;;;;;5026721;28;81854;-42
2022/06/25 06:01:10;;;;;;;;;;;21.30;68.10;;;;;;5027086;28;82725;-42
2022/06/25 06:03:36;;;;;;;;;;;21.30;68.20;;;;;;5029168;28;82141;-42
2022/06/25 06:06:01;;;;;;;;;;;21.40;68.10;;;;;;5026620;28;82335;-42
2022/06/25 06:08:27;;;;;;;;;;;21.40;68.00;;;;;;5026057;28;82982;-41
2022/06/25 06:10:52;;;;;;;;;;;21.30;68.10;;;;;;5026662;28;83575;-41
2022/06/25 06:13:18;;;;;;;;;;;21.30;68.10;;;;;;5026217;28;83206;-42
2022/06/25 06:15:43;;;;;;;;;;;21.40;68.10;;;;;;5026424;28;82076;-43
2022/06/25 06:18:09;;;;;;;;;;;21.40;68.10;;;;;;5026318;28;82321;-42
2022/06/25 06:20:34;;;;;;;;;;;21.40;68.10;;;;;;5025516;28;82094;-41
2022/06/25 06:23:01;;;;;;;;;;;21.40;68.10;;;;;;5029183;28;82085;-42
2022/06/25 06:25:27;;;;;;;;;;;21.40;68.10;;;;;;5026452;28;83807;-42
2022/06/25 06:27:53;;;;;;;;;;;21.40;68.10;;;;;;5026405;28;82089;-41
2022/06/25 06:30:18;;;;;;;;;;;21.40;68.10;;;;;;5026453;28;82277;-42
2022/06/25 06:32:44;;;;;;;;;;;21.40;68.10;;;;;;5025183;28;83899;-41
2022/06/25 06:35:09;;;;;;;;;;;21.40;68.10;;;;;;5026107;28;82013;-41
2022/06/25 06:37:35;;;;;;;;;;;21.40;68.10;;;;;;5026117;28;82212;-41
2022/06/25 06:40:01;;;;;;;;;;;21.40;68.00;;;;;;5025844;28;84542;-41
2022/06/25 06:42:26;;;;;;;;;;;21.40;68.10;;;;;;5026126;28;82088;-41
2022/06/25 06:44:52;;;;;;;;;;;21.40;68.10;;;;;;5028805;28;81930;-41
2022/06/25 06:47:17;;;;;;;;;;;21.40;68.00;;;;;;5026017;28;82157;-42
2022/06/25 06:49:43;;;;;;;;;;;21.40;68.10;;;;;;5026345;28;82495;-41
2022/06/25 06:52:08;;;;;;;;;;;21.40;68.00;;;;;;5025767;28;83080;-42
2022/06/25 06:54:34;;;;;;;;;;;21.40;68.00;;;;;;5025837;28;81936;-42
2022/06/25 06:56:59;;;;;;;;;;;21.40;68.00;;;;;;5025116;28;82814;-42
2022/06/25 06:59:26;;;;;;;;;;;21.40;68.10;;;;;;5025680;28;82602;-41
2022/06/25 07:01:52;;;;;;;;;;;21.40;68.10;;;;;;5025635;28;82070;-41
2022/06/25 07:04:17;;;;;;;;;;;21.40;68.00;;;;;;5025450;28;81835;-42
2022/06/25 07:06:43;;;;;;;;;;;21.40;68.10;;;;;;5027995;28;84317;-42
2022/06/25 07:09:08;;;;;;;;;;;21.40;68.00;;;;;;5025856;28;82332;-41
2022/06/25 07:11:34;;;;;;;;;;;21.40;67.90;;;;;;5025612;28;83108;-41
2022/06/25 07:14:00;;;;;;;;;;;21.50;67.90;;;;;;5026092;28;81232;-41
2022/06/25 07:16:26;;;;;;;;;;;21.40;67.90;;;;;;5025642;28;81743;-42
2022/06/25 07:18:53;;;;;;;;;;;21.50;68.50;;;;;;5025464;28;82917;-41
2022/06/25 07:21:19;;;;;;;;;;;21.50;67.90;;;;;;5024959;28;83007;-42
2022/06/25 07:23:44;;;;;;;;;;;21.50;68.10;;;;;;5025323;28;84881;-41
2022/06/25 07:26:10;;;;;;;;;;;21.40;67.90;;;;;;5025347;28;83020;-41
2022/06/25 07:28:35;;;;;;;;;;;21.50;68.20;;;;;;5028464;28;82268;-42
2022/06/25 07:31:01;;;;;;;;;;;21.50;67.90;;;;;;5027538;28;82808;-42
2022/06/25 07:33:27;;;;;;;;;;;21.50;68.00;;;;;;5028983;28;82004;-41
2022/06/25 07:35:52;;;;;;;;;;;21.50;67.90;;;;;;5028767;28;83978;-41
2022/06/25 07:38:18;;;;;;;;;;;21.50;68.20;;;;;;5029361;28;82330;-41
2022/06/25 07:40:43;;;;;;;;;;;21.50;68.00;;;;;;5028963;28;82022;-41
2022/06/25 07:43:09;;;;;;;;;;;21.50;68.10;;;;;;5028946;28;81989;-43
2022/06/25 07:45:34;;;;;;;;;;;21.50;68.10;;;;;;5028235;28;83997;-42
2022/06/25 07:48:00;;;;;;;;;;;21.50;67.90;;;;;;5028867;28;82108;-41
2022/06/25 07:53:09;;;;;;;;;;;21.50;68.20;;;;;;5028952;28;82233;-41
2022/06/25 07:55:35;;;;;;;;;;;21.60;68.00;;;;;;5028601;28;83406;-41
2022/06/25 07:58:00;;;;;;;;;;;21.50;67.80;;;;;;5028083;28;82953;-41
2022/06/25 08:00:26;;;;;;;;;;;21.50;67.90;;;;;;5028409;28;82061;-42
2022/06/25 08:02:52;;;;;;;;;;;21.60;68.10;;;;;;5028822;28;82503;-41
2022/06/25 08:05:18;;;;;;;;;;;21.60;68.00;;;;;;5028421;28;81933;-40
2022/06/25 08:07:45;;;;;;;;;;;21.60;68.00;;;;;;5028107;28;82119;-41
2022/06/25 08:10:11;;;;;;;;;;;21.50;69.00;;;;;;5027615;28;83053;-42
2022/06/25 08:12:37;;;;;;;;;;;21.50;69.10;;;;;;5030967;28;83264;-41
2022/06/25 08:15:03;;;;;;;;;;;21.60;69.40;;;;;;5028247;28;82410;-40
2022/06/25 08:17:29;;;;;;;;;;;21.60;69.30;;;;;;5027994;28;82973;-40
2022/06/25 08:19:54;;;;;;;;;;;21.60;69.40;;;;;;5028266;28;82090;-40
2022/06/25 08:22:20;;;;;;;;;;;21.60;69.50;;;;;;5028265;28;82479;-40
2022/06/25 08:24:45;;;;;;;;;;;21.60;69.20;;;;;;5028052;28;83158;-40
2022/06/25 08:27:11;;;;;;;;;;;21.70;69.50;;;;;;5028825;28;81381;-41
2022/06/25 08:29:37;;;;;;;;;;;21.70;68.60;;;;;;5028188;28;81989;-40
2022/06/25 08:32:03;;;;;;;;;;;21.70;69.20;;;;;;5030319;28;82961;-41
2022/06/25 08:34:28;;;;;;;;;;;21.60;68.80;;;;;;5027385;28;82983;-42
2022/06/25 08:36:54;;;;;;;;;;;21.60;69.00;;;;;;5027581;28;84627;-40
2022/06/25 08:39:19;;;;;;;;;;;21.70;69.80;;;;;;5027963;28;82084;-40
2022/06/25 08:41:45;;;;;;;;;;;21.70;69.90;;;;;;5027450;28;82616;-40
2022/06/25 08:44:11;;;;;;;;;;;21.70;69.70;;;;;;5028005;28;82956;-40
2022/06/25 08:46:37;;;;;;;;;;;21.80;69.50;;;;;;5027730;28;82069;-40
2022/06/25 08:49:02;;;;;;;;;;;21.80;69.30;;;;;;5027506;28;83859;-41
2022/06/25 08:51:28;;;;;;;;;;;21.80;69.20;;;;;;5027839;28;82909;-40
2022/06/25 08:53:57;;;;;;;;;;;21.80;68.70;;;;;;5030402;28;81878;-41
2022/06/25 08:56:23;;;;;;;;;;;21.80;69.00;;;;;;5027131;28;82104;-40
2022/06/25 08:58:48;;;;;;;;;;;21.80;68.60;;;;;;5026678;28;82984;-41
2022/06/25 09:01:14;;;;;;;;;;;21.80;69.10;;;;;;5027462;28;82236;-40
2022/06/25 09:03:39;;;;;;;;;;;21.80;69.30;;;;;;5027020;28;82083;-40
2022/06/25 09:06:31;;;;;;;;;;;21.80;69.30;;;;;;5026067;28;82071;-40
2022/06/25 09:09:10;;;;;;;;;;;21.80;69.50;;;;;;5024961;28;82942;-40
2022/06/25 09:11:53;;;;;;;;;;;21.90;69.80;;;;;;5027066;28;82952;-40
2022/06/25 09:14:22;;;;;;;;;;;21.90;69.40;;;;;;5027334;28;81912;-40
2022/06/25 09:17:09;;;;;;;;;;;21.90;69.70;;;;;;5030157;28;83944;-41
2022/06/25 09:19:36;;;;;;;;;;;21.90;69.50;;;;;;5027003;28;81959;-40
2022/06/25 09:22:05;;;;;;;;;;;21.90;69.60;;;;;;5027169;28;82762;-41
2022/06/25 09:24:40;;;;;;;;;;;21.90;69.70;;;;;;5026271;28;84047;-40
2022/06/25 09:27:06;;;;;;;;;;;21.90;69.80;;;;;;5027348;28;82076;-40
2022/06/25 09:29:43;;;;;;;;;;;22.00;69.40;;;;;;5026999;28;84356;-41
2022/06/25 09:32:09;;;;;;;;;;;22.00;69.70;;;;;;5026746;28;83570;-40
2022/06/25 09:34:36;;;;;;;;;;;22.00;69.90;;;;;;5026853;28;82473;-41
2022/06/25 09:37:15;;;;;;;;;;;22.00;69.70;;;;;;5026972;28;83156;-40
2022/06/25 09:39:41;;;;;;;;;;;22.00;69.70;;;;;;5029846;28;83308;-41
2022/06/25 09:42:18;;;;;;;;;;;22.10;70.40;;;;;;5027206;28;82958;-40
2022/06/25 09:44:43;;;;;;;;;;;22.10;69.70;;;;;;5027057;28;83134;-40
2022/06/25 09:47:09;;;;;;;;;;;22.10;69.60;;;;;;5026547;28;82091;-41
2022/06/25 09:49:34;;;;;;;;;;;22.10;69.90;;;;;;5026335;28;83172;-40
2022/06/25 09:52:01;;;;;;;;;;;22.20;69.50;;;;;;5026831;28;82986;-40
2022/06/25 09:54:26;;;;;;;;;;;22.10;69.70;;;;;;5025677;28;82004;-40
2022/06/25 09:56:52;;;;;;;;;;;22.20;69.70;;;;;;5026505;28;82678;-41
2022/06/25 09:59:18;;;;;;;;;;;22.20;69.90;;;;;;5026616;28;83368;-41
2022/06/25 10:01:44;;;;;;;;;;;22.20;70.10;;;;;;5029370;28;82037;-41
2022/06/25 10:04:10;;;;;;;;;;;22.20;70.30;;;;;;5026213;28;82953;-40
2022/06/25 10:06:38;;;;;;;;;;;22.20;70.30;;;;;;5027099;28;81242;-41
2022/06/25 10:09:05;;;;;;;;;;;22.20;70.40;;;;;;5026364;28;82111;-41
2022/06/25 10:11:31;;;;;;;;;;;22.30;70.40;;;;;;5026149;28;82003;-41
2022/06/25 10:13:56;;;;;;;;;;;22.30;70.40;;;;;;5025658;28;83076;-40
2022/06/25 10:16:23;;;;;;;;;;;22.30;70.40;;;;;;5026378;28;83564;-41
2022/06/25 10:18:49;;;;;;;;;;;22.30;70.30;;;;;;5025978;28;84146;-41
2022/06/25 10:21:15;;;;;;;;;;;22.40;70.30;;;;;;5026376;28;82124;-41
2022/06/25 10:23:41;;;;;;;;;;;22.40;70.40;;;;;;5028964;28;82376;-41
2022/06/25 10:26:08;;;;;;;;;;;22.40;70.50;;;;;;5026333;28;82054;-41
2022/06/25 10:28:35;;;;;;;;;;;22.50;70.40;;;;;;5026340;28;82318;-41
2022/06/25 10:31:04;;;;;;;;;;;22.50;70.30;;;;;;5026515;28;83887;-41
2022/06/25 10:33:35;;;;;;;;;;;22.50;70.30;;;;;;5025991;28;82073;-41
2022/06/25 10:36:04;;;;;;;;;;;22.50;70.30;;;;;;5026254;28;82403;-40
2022/06/25 10:38:30;;;;;;;;;;;22.50;70.30;;;;;;5025132;28;84106;-41
2022/06/25 10:42:58;;;;;;;;;;;22.50;70.40;;;;;;5026039;28;82131;-41
2022/06/25 10:43:47;;;;;;;;;;;22.60;70.40;;;;;;5028200;28;82668;-41
2022/06/25 10:46:19;;;;;;;;;;;22.60;70.30;;;;;;5025878;28;82144;-40
2022/06/25 10:49:06;;;;;;;;;;;22.60;70.20;;;;;;5025869;28;82740;-41
2022/06/25 10:51:39;;;;;;;;;;;22.60;70.30;;;;;;5025476;28;84575;-40
2022/06/25 10:54:06;;;;;;;;;;;22.60;70.30;;;;;;5025452;28;82232;-41
2022/06/25 10:56:50;;;;;;;;;;;22.60;70.10;;;;;;5026317;28;82459;-43
2022/06/25 10:59:46;;;;;;;;;;;22.60;70.20;;;;;;5025871;28;82994;-41
2022/06/25 11:02:16;;;;;;;;;;;22.60;70.20;;;;;;5025299;28;82120;-40
2022/06/25 11:04:49;;;;;;;;;;;22.70;70.20;;;;;;5024611;28;84085;-41
2022/06/25 11:07:19;;;;;;;;;;;22.70;70.10;;;;;;5026642;28;86245;-40
2022/06/25 11:10:05;;;;;;;;;;;22.80;69.90;;;;;;5025713;28;82236;-41
2022/06/25 11:12:34;;;;;;;;;;;22.80;70.00;;;;;;5024808;28;83026;-40
2022/06/25 11:15:01;;;;;;;;;;;22.80;70.00;;;;;;5025113;28;82064;-40
2022/06/25 11:17:27;;;;;;;;;;;22.80;69.60;;;;;;5025778;28;81919;-40
2022/06/25 11:19:52;;;;;;;;;;;22.90;69.70;;;;;;5025399;28;82929;-40
2022/06/25 11:22:18;;;;;;;;;;;22.90;69.80;;;;;;5026123;28;81360;-40
2022/06/25 11:30:13;;;;;;;;;;;23.00;69.50;;;;;;5027971;28;82771;-41
2022/06/25 11:32:42;;;;;;;;;;;23.00;69.60;;;;;;5025130;28;84853;-41
2022/06/25 11:35:07;;;;;;;;;;;23.00;69.70;;;;;;5025273;28;82075;-40
2022/06/25 11:37:33;;;;;;;;;;;23.00;69.70;;;;;;5025421;28;82420;-40
2022/06/25 11:39:58;;;;;;;;;;;23.00;69.80;;;;;;5025238;28;83083;-41
2022/06/25 11:42:24;;;;;;;;;;;23.00;69.80;;;;;;5025015;28;82043;-41
2022/06/25 11:44:50;;;;;;;;;;;23.10;69.70;;;;;;5025267;28;82264;-40
2022/06/25 11:47:19;;;;;;;;;;;23.10;69.60;;;;;;5025706;28;82340;-41
2022/06/25 11:49:45;;;;;;;;;;;23.10;69.50;;;;;;5025389;28;82027;-41
2022/06/25 11:52:11;;;;;;;;;;;23.20;69.30;;;;;;5027619;28;83850;-40
2022/06/25 11:54:38;;;;;;;;;;;23.20;69.10;;;;;;5024432;28;83007;-41
2022/06/25 11:57:04;;;;;;;;;;;23.30;69.10;;;;;;5024728;28;84822;-41
2022/06/25 11:59:32;;;;;;;;;;;23.30;69.20;;;;;;5024655;28;84569;-40
2022/06/25 12:02:03;;;;;;;;;;;23.20;69.10;;;;;;5025071;28;82081;-41
2022/06/25 12:04:29;;;;;;;;;;;23.20;69.20;;;;;;5024867;28;82473;-41
2022/06/25 12:06:55;;;;;;;;;;;23.30;69.00;;;;;;5024993;28;83102;-41
2022/06/25 12:09:21;;;;;;;;;;;23.30;69.10;;;;;;5025234;28;82089;-41
2022/06/25 12:11:53;;;;;;;;;;;23.40;69.10;;;;;;5025604;28;82566;-40
2022/06/25 12:14:23;;;;;;;;;;;23.40;68.90;;;;;;5027177;28;83403;-41
2022/06/25 12:16:49;;;;;;;;;;;23.40;68.80;;;;;;5025268;28;81854;-40
2022/06/25 12:19:15;;;;;;;;;;;23.40;68.90;;;;;;5027353;28;85656;-40
2022/06/25 12:21:41;;;;;;;;;;;23.50;69.10;;;;;;5028150;28;82729;-41
2022/06/25 12:24:10;;;;;;;;;;;23.50;69.20;;;;;;5027995;28;82574;-40
2022/06/25 12:26:36;;;;;;;;;;;23.50;68.50;;;;;;5027957;28;83125;-41
2022/06/25 12:29:30;;;;;;;;;;;23.60;68.50;;;;;;5028249;28;82067;-40
2022/06/25 12:31:58;;;;;;;;;;;23.60;68.60;;;;;;5018841;28;82466;-40
2022/06/25 12:34:24;;;;;;;;;;;23.60;68.70;;;;;;5027621;28;84753;-41
2022/06/25 12:36:51;;;;;;;;;;;23.60;69.10;;;;;;5031107;28;81093;-41
2022/06/25 12:39:35;;;;;;;;;;;23.60;68.60;;;;;;5027869;28;83594;-41
2022/06/25 12:42:05;;;;;;;;;;;23.70;68.40;;;;;;5028173;28;82105;-41
2022/06/25 12:44:31;;;;;;;;;;;23.70;68.50;;;;;;5025931;28;83816;-40
2022/06/25 12:47:01;;;;;;;;;;;23.70;68.40;;;;;;5027778;28;82001;-40
2022/06/25 12:49:37;;;;;;;;;;;23.70;68.40;;;;;;5027698;28;82000;-41
2022/06/25 12:52:03;;;;;;;;;;;23.80;68.40;;;;;;5027998;28;82404;-40
2022/06/25 12:54:28;;;;;;;;;;;23.80;68.30;;;;;;5027581;28;82858;-40
2022/06/25 12:56:54;;;;;;;;;;;23.80;68.30;;;;;;5030588;28;82031;-40
2022/06/25 12:59:19;;;;;;;;;;;23.80;68.20;;;;;;5027460;28;83119;-41
2022/06/25 13:01:45;;;;;;;;;;;23.80;68.20;;;;;;5027908;28;81334;-40
2022/06/25 13:04:10;;;;;;;;;;;23.80;68.20;;;;;;5027445;28;82121;-40
2022/06/25 13:06:36;;;;;;;;;;;23.80;68.00;;;;;;5027393;28;83189;-40
2022/06/25 13:09:01;;;;;;;;;;;23.80;68.10;;;;;;5027078;28;82916;-41
2022/06/25 13:11:27;;;;;;;;;;;23.90;68.20;;;;;;5027527;28;83308;-40
2022/06/25 13:13:53;;;;;;;;;;;23.90;68.10;;;;;;5027312;28;82463;-40
2022/06/25 13:16:18;;;;;;;;;;;23.90;68.10;;;;;;5027191;28;83104;-40
2022/06/25 13:18:44;;;;;;;;;;;24.00;67.80;;;;;;5029965;28;82568;-40
2022/06/25 13:21:11;;;;;;;;;;;24.00;67.70;;;;;;5027427;28;82121;-41
2022/06/25 13:23:36;;;;;;;;;;;24.00;67.60;;;;;;5027333;28;82342;-40
2022/06/25 13:26:03;;;;;;;;;;;24.00;67.50;;;;;;5027689;28;82254;-40
2022/06/25 13:28:30;;;;;;;;;;;24.00;67.70;;;;;;5026970;28;82077;-40
2022/06/25 13:30:55;;;;;;;;;;;24.10;67.70;;;;;;5027008;28;82499;-41
2022/06/25 13:33:21;;;;;;;;;;;24.00;67.80;;;;;;5026300;28;84198;-41
2022/06/25 13:35:47;;;;;;;;;;;24.00;67.80;;;;;;5026947;28;82117;-40
2022/06/25 13:38:12;;;;;;;;;;;24.00;67.90;;;;;;5026852;28;84342;-40
2022/06/25 13:40:38;;;;;;;;;;;24.00;67.80;;;;;;5029261;28;83712;-40
2022/06/25 13:43:05;;;;;;;;;;;24.10;67.80;;;;;;5026997;28;82545;-42
2022/06/25 13:45:30;;;;;;;;;;;24.10;67.80;;;;;;5026661;28;84433;-41
2022/06/25 13:47:56;;;;;;;;;;;24.20;67.80;;;;;;5027050;28;82085;-41
2022/06/25 13:50:21;;;;;;;;;;;24.20;67.80;;;;;;5027473;28;82490;-41
2022/06/25 13:52:47;;;;;;;;;;;24.20;67.70;;;;;;5026548;28;82619;-41
2022/06/25 13:55:12;;;;;;;;;;;24.20;67.80;;;;;;5026786;28;82063;-41
2022/06/25 13:57:39;;;;;;;;;;;24.20;67.70;;;;;;5025866;28;83209;-41
2022/06/25 14:00:05;;;;;;;;;;;24.20;67.70;;;;;;5026235;28;84408;-41
2022/06/25 14:02:31;;;;;;;;;;;24.20;67.70;;;;;;5029056;28;81985;-42
2022/06/25 14:04:56;;;;;;;;;;;24.20;67.70;;;;;;5026351;28;84410;-41
2022/06/25 14:07:22;;;;;;;;;;;24.20;67.70;;;;;;5026734;28;82132;-40
2022/06/25 14:09:47;;;;;;;;;;;24.20;67.60;;;;;;5026453;28;83813;-40
2022/06/25 14:12:13;;;;;;;;;;;24.20;67.60;;;;;;5026639;28;82488;-40
2022/06/25 14:14:38;;;;;;;;;;;24.20;67.60;;;;;;5026673;28;81362;-41
2022/06/25 14:17:04;;;;;;;;;;;24.20;67.70;;;;;;5026451;28;81971;-41
2022/06/25 14:19:29;;;;;;;;;;;24.20;67.60;;;;;;5026424;28;82439;-41
2022/06/25 14:21:55;;;;;;;;;;;24.30;67.70;;;;;;5025777;28;83033;-39
2022/06/25 14:27:05;;;;;;;;;;;24.20;67.60;;;;;;5026417;28;82041;-40
2022/06/25 14:29:31;;;;;;;;;;;24.30;67.60;;;;;;5026224;28;83307;-42
2022/06/25 14:31:56;;;;;;;;;;;24.30;67.70;;;;;;5026284;28;82982;-41
2022/06/25 14:34:22;;;;;;;;;;;24.30;67.70;;;;;;5026175;28;82117;-41
2022/06/25 14:42:22;;;;;;;;;;;24.30;67.60;;;;;;5026310;28;82494;-40
2022/06/25 14:44:50;;;;;;;;;;;24.30;67.60;;;;;;5028849;28;82203;-40
2022/06/25 14:47:16;;;;;;;;;;;24.30;67.70;;;;;;5025394;28;83038;-40
2022/06/25 14:49:42;;;;;;;;;;;24.30;67.70;;;;;;5026115;28;82360;-41